Time;durP1;ratioP1;P1;durP2;ratioP2;P2;SDS_P1;SDS_P2;PMS_P1;PMS_P2;Temp;Humidity;BMP_temperature;BMP_pressure;BME280_temperature;BME280_humidity;BME280_pressure;Samples;Min_cycle;Max_cycle;Signal;HPM_P1;HPM_P2
2023/10/10 00:04:19;;;;;;;;;;;;;;;-144.32;100.00;68061.97;10225465;28;19927;-78
2023/10/10 00:09:23;;;;;;;;;;;;;;;-144.32;100.00;68061.97;10202691;28;20005;-80
2023/10/10 00:14:27;;;;;;;;;;;;;;;-144.32;100.00;68061.97;10220179;28;20468;-82
2023/10/10 00:19:53;;;;;;;;;;;;;;;-144.32;100.00;68061.97;10222596;28;19926;-79
2023/10/10 00:24:54;;;;;;;;;;;;;;;-144.32;100.00;68061.97;10224709;28;20188;-81
2023/10/10 00:30:12;;;;;;;;;;;;;;;-144.32;100.00;68061.97;10201661;28;19926;-81
2023/10/10 00:35:15;;;;;;;;;;;;;;;-144.32;100.00;68061.97;10223462;28;20364;-80
2023/10/10 00:40:29;;;;;;;;;;;;;;;-144.32;100.00;68061.97;10218136;28;20394;-80
2023/10/10 00:45:33;;;;;;;;;;;;;;;-144.32;100.00;68061.97;10234190;28;19922;-81
2023/10/10 00:50:37;;;;;;;;;;;;;;;-144.32;100.00;68061.97;10263001;28;19993;-83
2023/10/10 00:55:39;;;;;;;;;;;;;;;-144.32;100.00;68061.97;10213387;28;19926;-81
2023/10/10 01:00:46;;;;;;;;;;;;;;;-144.32;100.00;68061.97;10240327;28;19933;-81
2023/10/10 01:05:52;;;;;;;;;;;;;;;-144.32;100.00;68061.97;10255598;28;19937;-78
2023/10/10 01:11:02;;;;;;;;;;;;;;;-144.32;100.00;68061.97;10212504;28;19930;-78
2023/10/10 01:16:05;;;;;;;;;;;;;;;-144.32;100.00;68061.97;10223354;28;19945;-79
2023/10/10 01:21:06;;;;;;;;;;;;;;;-144.32;100.00;68061.97;10210488;28;19926;-80
2023/10/10 01:26:09;;;;;;;;;;;;;;;-144.32;100.00;68061.97;10226261;28;19933;-82
2023/10/10 01:31:17;;;;;;;;;;;;;;;-144.32;100.00;68061.97;10207734;28;20367;-82
2023/10/10 01:36:22;;;;;;;;;;;;;;;-144.32;100.00;68061.97;10210251;28;19977;-82
2023/10/10 01:41:31;;;;;;;;;;;;;;;-144.32;100.00;68061.97;10226091;28;20380;-78
2023/10/10 01:46:34;;;;;;;;;;;;;;;-144.32;100.00;68061.97;10232393;28;19969;-83
2023/10/10 01:51:42;;;;;;;;;;;;;;;-144.32;100.00;68061.97;10205519;28;20493;-81
2023/10/10 01:56:42;;;;;;;;;;;;;;;-144.32;100.00;68061.97;10202373;28;19933;-80
2023/10/10 02:01:44;;;;;;;;;;;;;;;-144.32;100.00;68061.97;10216834;28;20647;-79
2023/10/10 02:06:45;;;;;;;;;;;;;;;-144.32;100.00;68061.97;10221652;28;19933;-79
2023/10/10 02:11:50;;;;;;;;;;;;;;;-144.32;100.00;68061.97;10215892;28;20659;-78
2023/10/10 02:16:53;;;;;;;;;;;;;;;-144.32;100.00;68061.97;10198351;28;20468;-78
2023/10/10 02:22:13;;;;;;;;;;;;;;;-144.32;100.00;68061.97;10230401;28;19931;-78
2023/10/10 02:27:13;;;;;;;;;;;;;;;-144.32;100.00;68061.97;10204668;28;20016;-81
2023/10/10 02:32:19;;;;;;;;;;;;;;;-144.32;100.00;68061.97;10232869;28;19933;-80
2023/10/10 02:42:28;;;;;;;;;;;;;;;-144.32;100.00;68061.97;10219415;28;20037;-81
2023/10/10 02:47:30;;;;;;;;;;;;;;;-144.32;100.00;68061.97;10233224;28;19926;-81
2023/10/10 02:52:31;;;;;;;;;;;;;;;-144.32;100.00;68061.97;10207897;28;19933;-84
2023/10/10 02:57:39;;;;;;;;;;;;;;;-144.32;100.00;68061.97;10236946;28;19923;-86
2023/10/10 03:02:49;;;;;;;;;;;;;;;-144.32;100.00;68061.97;10257037;28;19933;-82
2023/10/10 03:07:51;;;;;;;;;;;;;;;-144.32;100.00;68061.97;10243627;28;19933;-80
2023/10/10 03:13:05;;;;;;;;;;;;;;;-144.32;100.00;68061.97;10220264;28;19956;-81
2023/10/10 03:28:20;;;;;;;;;;;;;;;-144.32;100.00;68061.97;10216999;28;19931;-80
2023/10/10 03:34:32;;;;;;;;;;;;;;;-144.32;100.00;68061.97;10205942;28;19938;-80
2023/10/10 05:25:41;;;;;;;;;;;;;;;-144.32;100.00;68061.97;10232813;28;19933;-79
2023/10/10 05:30:46;;;;;;;;;;;;;;;-144.32;100.00;68061.97;10212061;28;19926;-81
2023/10/10 05:35:47;;;;;;;;;;;;;;;-144.32;100.00;68061.97;10272960;23;20352;-79
2023/10/10 05:40:48;;;;;;;;;;;;;;;-144.32;100.00;68061.97;10268386;28;19937;-78
2023/10/10 05:45:50;;;;;;;;;;;;;;;-144.32;100.00;68061.97;10271599;28;19924;-76
2023/10/10 05:50:51;;;;;;;;;;;;;;;-144.32;100.00;68061.97;10266867;28;19938;-77
2023/10/10 05:55:58;;;;;;;;;;;;;;;-144.32;100.00;68061.97;10278301;28;19929;-78
2023/10/10 06:01:03;;;;;;;;;;;;;;;-144.32;100.00;68061.97;10291208;28;19961;-82
2023/10/10 06:06:04;;;;;;;;;;;;;;;-144.32;100.00;68061.97;10420501;23;19928;-85
2023/10/10 06:11:09;;;;;;;;;;;;;;;-144.32;100.00;68061.97;10333726;28;20306;-76
2023/10/10 06:16:14;;;;;;;;;;;;;;;-144.32;100.00;68061.97;10321838;28;19953;-79
2023/10/10 06:21:15;;;;;;;;;;;;;;;-144.32;100.00;68061.97;10307282;28;20029;-79
2023/10/10 06:26:15;;;;;;;;;;;;;;;-144.32;100.00;68061.97;10296805;28;19946;-74
2023/10/10 06:31:33;;;;;;;;;;;;;;;-144.32;100.00;68061.97;10294796;28;19938;-76
2023/10/10 06:36:35;;;;;;;;;;;;;;;-144.32;100.00;68061.97;10294332;28;20458;-75
2023/10/10 06:41:40;;;;;;;;;;;;;;;-144.32;100.00;68061.97;10295464;28;19929;-75
2023/10/10 06:46:41;;;;;;;;;;;;;;;-144.32;100.00;68061.97;10293044;28;20045;-75
2023/10/10 06:51:41;;;;;;;;;;;;;;;-144.32;100.00;68061.97;10281948;28;20002;-75
2023/10/10 06:56:45;;;;;;;;;;;;;;;-144.32;100.00;68061.97;10289613;28;19957;-75
2023/10/10 07:01:45;;;;;;;;;;;;;;;-144.32;100.00;68061.97;10294795;28;20032;-77
2023/10/10 07:06:47;;;;;;;;;;;;;;;-144.32;100.00;68061.97;10305730;28;19932;-75
2023/10/10 07:11:49;;;;;;;;;;;;;;;-144.32;100.00;68061.97;10302890;28;19932;-75
2023/10/10 07:16:54;;;;;;;;;;;;;;;-144.32;100.00;68061.97;10305497;28;19925;-75
2023/10/10 07:21:54;;;;;;;;;;;;;;;-144.32;100.00;68061.97;10305723;28;19937;-74
2023/10/10 07:27:05;;;;;;;;;;;;;;;-144.32;100.00;68061.97;10307831;28;20028;-75
2023/10/10 07:32:07;;;;;;;;;;;;;;;-144.32;100.00;68061.97;10306284;28;19922;-75
2023/10/10 07:37:08;;;;;;;;;;;;;;;-144.32;100.00;68061.97;10289169;28;19926;-75
2023/10/10 07:42:09;;;;;;;;;;;;;;;-144.32;100.00;68061.97;10304543;28;20080;-75
2023/10/10 07:52:16;;;;;;;;;;;;;;;-144.32;100.00;68061.97;10303823;28;19921;-76
2023/10/10 07:57:22;;;;;;;;;;;;;;;-144.32;100.00;68061.97;10299687;28;19936;-75
2023/10/10 08:02:31;;;;;;;;;;;;;;;-144.32;100.00;68061.97;10293956;28;19929;-75
2023/10/10 08:07:35;;;;;;;;;;;;;;;-144.32;100.00;68061.97;10305658;28;19929;-74
2023/10/10 08:12:36;;;;;;;;;;;;;;;-144.32;100.00;68061.97;10308030;28;19933;-77
2023/10/10 08:17:36;;;;;;;;;;;;;;;-144.32;100.00;68061.97;10299365;28;19968;-74
2023/10/10 08:22:36;;;;;;;;;;;;;;;-144.32;100.00;68061.97;10277355;28;19926;-75
2023/10/10 08:27:38;;;;;;;;;;;;;;;-144.32;100.00;68061.97;10279165;28;20473;-76
2023/10/10 08:32:38;;;;;;;;;;;;;;;-144.32;100.00;68061.97;10295680;28;20159;-76
2023/10/10 08:37:38;;;;;;;;;;;;;;;-144.32;100.00;68061.97;10281665;28;20102;-76
2023/10/10 08:42:40;;;;;;;;;;;;;;;-144.32;100.00;68061.97;10276588;28;19926;-76
2023/10/10 08:47:42;;;;;;;;;;;;;;;-144.32;100.00;68061.97;10288101;28;19929;-74
2023/10/10 08:52:43;;;;;;;;;;;;;;;-144.32;100.00;68061.97;10304546;28;19926;-76
2023/10/10 08:57:44;;;;;;;;;;;;;;;-144.32;100.00;68061.97;10304246;28;19925;-76
2023/10/10 09:02:44;;;;;;;;;;;;;;;-144.32;100.00;68061.97;10290100;28;20286;-77
2023/10/10 09:07:46;;;;;;;;;;;;;;;-144.32;100.00;68061.97;10311799;28;20418;-75
2023/10/10 09:12:53;;;;;;;;;;;;;;;-144.32;100.00;68061.97;10281681;28;19932;-76
2023/10/10 09:18:10;;;;;;;;;;;;;;;-144.32;100.00;68061.97;10303474;28;19940;-76
2023/10/10 09:23:21;;;;;;;;;;;;;;;-144.32;100.00;68061.97;10290714;28;19976;-75
2023/10/10 09:28:21;;;;;;;;;;;;;;;-144.32;100.00;68061.97;10285121;28;20455;-75
2023/10/10 09:33:23;;;;;;;;;;;;;;;-144.32;100.00;68061.97;10298144;28;19937;-76
2023/10/10 09:38:26;;;;;;;;;;;;;;;-144.32;100.00;68061.97;10298342;28;19972;-76
2023/10/10 09:43:35;;;;;;;;;;;;;;;-144.32;100.00;68061.97;10306292;28;19960;-76
2023/10/10 09:53:40;;;;;;;;;;;;;;;-144.32;100.00;68061.97;10308248;28;20618;-75
2023/10/10 09:58:44;;;;;;;;;;;;;;;-144.32;100.00;68061.97;10311512;28;19932;-76
2023/10/10 10:03:55;;;;;;;;;;;;;;;-144.32;100.00;68061.97;10295564;28;20302;-75
2023/10/10 10:09:08;;;;;;;;;;;;;;;-144.32;100.00;68061.97;10299897;28;19937;-76
2023/10/10 10:14:25;;;;;;;;;;;;;;;-144.32;100.00;68061.97;10300154;28;20383;-76
2023/10/10 10:19:28;;;;;;;;;;;;;;;-144.32;100.00;68061.97;10296101;28;19937;-78
2023/10/10 10:24:30;;;;;;;;;;;;;;;-144.32;100.00;68061.97;10306801;28;19929;-81
2023/10/10 10:29:36;;;;;;;;;;;;;;;-144.32;100.00;68061.97;10313732;28;19928;-77
2023/10/10 10:34:37;;;;;;;;;;;;;;;-144.32;100.00;68061.97;10301768;28;19925;-79
2023/10/10 10:39:37;;;;;;;;;;;;;;;-144.32;100.00;68061.97;10288639;28;19925;-80
2023/10/10 10:49:52;;;;;;;;;;;;;;;-144.32;100.00;68061.97;10306705;28;20274;-79
2023/10/10 10:55:18;;;;;;;;;;;;;;;-144.32;100.00;68061.97;10310562;28;19933;-78
2023/10/10 11:00:28;;;;;;;;;;;;;;;-144.32;100.00;68061.97;10315520;28;19960;-77
2023/10/10 11:05:28;;;;;;;;;;;;;;;-144.32;100.00;68061.97;10291690;28;20343;-79
2023/10/10 11:10:36;;;;;;;;;;;;;;;-144.32;100.00;68061.97;10285633;28;19932;-79
2023/10/10 11:15:38;;;;;;;;;;;;;;;-144.32;100.00;68061.97;10297430;28;20544;-79
2023/10/10 11:21:06;;;;;;;;;;;;;;;-144.32;100.00;68061.97;10299298;28;19937;-78
2023/10/10 11:26:13;;;;;;;;;;;;;;;-144.32;100.00;68061.97;10296068;28;19930;-79
2023/10/10 11:31:22;;;;;;;;;;;;;;;-144.32;100.00;68061.97;10316831;28;19932;-78
2023/10/10 11:36:29;;;;;;;;;;;;;;;-144.32;100.00;68061.97;10296318;28;19926;-81
2023/10/10 11:41:30;;;;;;;;;;;;;;;-144.32;100.00;68061.97;10302313;28;19926;-80
2023/10/10 11:46:30;;;;;;;;;;;;;;;-144.32;100.00;68061.97;10307814;28;19937;-79
2023/10/10 11:51:38;;;;;;;;;;;;;;;-144.32;100.00;68061.97;10313768;28;20005;-79
2023/10/10 11:56:38;;;;;;;;;;;;;;;-144.32;100.00;68061.97;10332330;28;19964;-83
2023/10/10 12:01:51;;;;;;;;;;;;;;;-144.32;100.00;68061.97;10313124;28;19932;-79
2023/10/10 12:06:55;;;;;;;;;;;;;;;-144.32;100.00;68061.97;10322226;28;19929;-77
2023/10/10 12:11:59;;;;;;;;;;;;;;;-144.32;100.00;68061.97;10324383;28;19948;-79
2023/10/10 12:17:00;;;;;;;;;;;;;;;-144.32;100.00;68061.97;10327927;28;20411;-82
2023/10/10 12:22:07;;;;;;;;;;;;;;;-144.32;100.00;68061.97;10312094;28;19930;-79
2023/10/10 12:27:08;;;;;;;;;;;;;;;-144.32;100.00;68061.97;10321680;28;20599;-80
2023/10/10 12:32:15;;;;;;;;;;;;;;;-144.32;100.00;68061.97;10317353;28;19929;-79
2023/10/10 12:37:16;;;;;;;;;;;;;;;-144.32;100.00;68061.97;10319680;28;20438;-79
2023/10/10 12:42:16;;;;;;;;;;;;;;;-144.32;100.00;68061.97;10319365;28;20059;-78
2023/10/10 12:47:17;;;;;;;;;;;;;;;-144.32;100.00;68061.97;10361948;28;20846;-78
2023/10/10 12:52:18;;;;;;;;;;;;;;;-144.32;100.00;68061.97;10348031;28;19934;-79
2023/10/10 12:57:23;;;;;;;;;;;;;;;-144.32;100.00;68061.97;10360816;28;19948;-80
2023/10/10 13:02:26;;;;;;;;;;;;;;;-144.32;100.00;68061.97;10361539;28;19941;-77
2023/10/10 13:07:27;;;;;;;;;;;;;;;-144.32;100.00;68061.97;10354475;28;19929;-79
2023/10/10 13:12:32;;;;;;;;;;;;;;;-144.32;100.00;68061.97;10320103;28;19925;-79
2023/10/10 13:17:49;;;;;;;;;;;;;;;-144.32;100.00;68061.97;10303365;28;20454;-78
2023/10/10 13:22:53;;;;;;;;;;;;;;;-144.32;100.00;68061.97;10298990;28;19926;-79
2023/10/10 13:27:53;;;;;;;;;;;;;;;-144.32;100.00;68061.97;10291050;28;20957;-78
2023/10/10 13:32:54;;;;;;;;;;;;;;;-144.32;100.00;68061.97;10304629;28;19936;-81
2023/10/10 13:37:55;;;;;;;;;;;;;;;-144.32;100.00;68061.97;10300962;28;19936;-81
2023/10/10 13:42:58;;;;;;;;;;;;;;;-144.32;100.00;68061.97;10310285;28;19925;-81
2023/10/10 13:48:00;;;;;;;;;;;;;;;-144.32;100.00;68061.97;10284293;28;19930;-81
2023/10/10 13:53:04;;;;;;;;;;;;;;;-144.32;100.00;68061.97;10285313;28;20304;-80
2023/10/10 13:58:16;;;;;;;;;;;;;;;-144.32;100.00;68061.97;10313830;28;19980;-82
2023/10/10 14:03:16;;;;;;;;;;;;;;;-144.32;100.00;68061.97;10305131;28;19984;-84
2023/10/10 14:08:17;;;;;;;;;;;;;;;-144.32;100.00;68061.97;10319461;28;20813;-80
2023/10/10 14:13:21;;;;;;;;;;;;;;;-144.32;100.00;68061.97;10294128;28;20482;-81
2023/10/10 14:18:46;;;;;;;;;;;;;;;-144.32;100.00;68061.97;10289364;28;19926;-80
2023/10/10 14:23:46;;;;;;;;;;;;;;;-144.32;100.00;68061.97;10304369;28;19961;-81
2023/10/10 14:28:50;;;;;;;;;;;;;;;-144.32;100.00;68061.97;10282877;28;19929;-80
2023/10/10 14:33:51;;;;;;;;;;;;;;;-144.32;100.00;68061.97;10288410;28;20906;-80
2023/10/10 14:38:51;;;;;;;;;;;;;;;-144.32;100.00;68061.97;10295974;28;19929;-79
2023/10/10 14:43:54;;;;;;;;;;;;;;;-144.32;100.00;68061.97;10313085;28;20377;-79
2023/10/10 14:49:01;;;;;;;;;;;;;;;-144.32;100.00;68061.97;10304803;28;19932;-85
2023/10/10 14:54:17;;;;;;;;;;;;;;;-144.32;100.00;68061.97;10306272;28;19928;-82
2023/10/10 14:59:31;;;;;;;;;;;;;;;-144.32;100.00;68061.97;10314369;28;20069;-74
2023/10/10 15:04:33;;;;;;;;;;;;;;;-144.32;100.00;68061.97;10311529;28;20333;-83
2023/10/10 15:09:35;;;;;;;;;;;;;;;-144.32;100.00;68061.97;10308537;28;19930;-83
2023/10/10 15:14:42;;;;;;;;;;;;;;;-144.32;100.00;68061.97;10304697;28;19932;-79
2023/10/10 15:19:44;;;;;;;;;;;;;;;-144.32;100.00;68061.97;10309756;28;19925;-78
2023/10/10 15:24:50;;;;;;;;;;;;;;;-144.32;100.00;68061.97;10328119;28;19989;-87
2023/10/10 15:29:57;;;;;;;;;;;;;;;-144.32;100.00;68061.97;10377524;28;19937;-85
2023/10/10 15:35:02;;;;;;;;;;;;;;;-144.32;100.00;68061.97;10352120;28;19926;-84
2023/10/10 15:40:05;;;;;;;;;;;;;;;-144.32;100.00;68061.97;10341071;28;19926;-79
2023/10/10 15:45:06;;;;;;;;;;;;;;;-144.32;100.00;68061.97;10325194;28;19926;-81
2023/10/10 15:50:07;;;;;;;;;;;;;;;-144.32;100.00;68061.97;10300172;28;19984;-82
2023/10/10 15:55:11;;;;;;;;;;;;;;;-144.32;100.00;68061.97;10277085;28;19917;-87
2023/10/10 16:00:15;;;;;;;;;;;;;;;-144.32;100.00;68061.97;10290795;28;19933;-86
2023/10/10 16:05:17;;;;;;;;;;;;;;;-144.32;100.00;68061.97;10308283;28;20012;-87
2023/10/10 16:10:20;;;;;;;;;;;;;;;-144.32;100.00;68061.97;10331824;28;19930;-81
2023/10/10 16:15:24;;;;;;;;;;;;;;;-144.32;100.00;68061.97;10321293;28;19932;-81
2023/10/10 16:20:45;;;;;;;;;;;;;;;-144.32;100.00;68061.97;10322371;28;19926;-82
2023/10/10 16:25:49;;;;;;;;;;;;;;;-144.32;100.00;68061.97;10291059;28;20028;-81
2023/10/10 16:30:53;;;;;;;;;;;;;;;-144.32;100.00;68061.97;10303629;28;20363;-79
2023/10/10 16:35:56;;;;;;;;;;;;;;;-144.32;100.00;68061.97;10307593;28;20048;-84
2023/10/10 16:41:24;;;;;;;;;;;;;;;-144.32;100.00;68061.97;10302701;28;19933;-85
2023/10/10 16:46:30;;;;;;;;;;;;;;;-144.32;100.00;68061.97;10307597;28;19957;-82
2023/10/10 16:51:32;;;;;;;;;;;;;;;-144.32;100.00;68061.97;10298891;28;20711;-88
2023/10/10 16:56:35;;;;;;;;;;;;;;;-144.32;100.00;68061.97;10317433;28;19933;-83
2023/10/10 17:02:01;;;;;;;;;;;;;;;-144.32;100.00;68061.97;10262652;28;19926;-79
2023/10/10 17:07:03;;;;;;;;;;;;;;;-144.32;100.00;68061.97;10244470;28;19926;-82
2023/10/10 17:12:17;;;;;;;;;;;;;;;-144.32;100.00;68061.97;10258770;28;19989;-80
2023/10/10 17:17:17;;;;;;;;;;;;;;;-144.32;100.00;68061.97;10294920;28;19936;-82
2023/10/10 17:22:18;;;;;;;;;;;;;;;-144.32;100.00;68061.97;10378029;28;19936;-86
2023/10/10 17:27:19;;;;;;;;;;;;;;;-144.32;100.00;68061.97;10353214;28;19934;-83
2023/10/10 17:32:24;;;;;;;;;;;;;;;-144.32;100.00;68061.97;10276353;28;20025;-86
2023/10/10 17:37:27;;;;;;;;;;;;;;;-144.32;100.00;68061.97;10298083;23;19965;-81
2023/10/10 17:42:28;;;;;;;;;;;;;;;-144.32;100.00;68061.97;10300503;28;20002;-82
2023/10/10 17:47:40;;;;;;;;;;;;;;;-144.32;100.00;68061.97;10285573;28;19945;-83
2023/10/10 17:52:42;;;;;;;;;;;;;;;-144.32;100.00;68061.97;10269030;28;19931;-79
2023/10/10 17:57:44;;;;;;;;;;;;;;;-144.32;100.00;68061.97;10219312;28;19930;-84
2023/10/10 18:02:48;;;;;;;;;;;;;;;-144.32;100.00;68061.97;10243885;28;19992;-86
2023/10/10 18:07:54;;;;;;;;;;;;;;;-144.32;100.00;68061.97;10268081;28;19968;-83
2023/10/10 18:13:23;;;;;;;;;;;;;;;-144.32;100.00;68061.97;10292905;28;19929;-85
2023/10/10 18:18:28;;;;;;;;;;;;;;;-144.32;100.00;68061.97;10190992;28;1200568;-85
2023/10/10 18:23:31;;;;;;;;;;;;;;;-144.32;100.00;68061.97;10242169;28;20414;-84
2023/10/10 18:33:51;;;;;;;;;;;;;;;-144.32;100.00;68061.97;10252179;28;20268;-85
2023/10/10 18:39:00;;;;;;;;;;;;;;;-144.32;100.00;68061.97;10266654;28;19933;-85
2023/10/10 18:44:29;;;;;;;;;;;;;;;-144.32;100.00;68061.97;10275045;28;19957;-85
2023/10/10 18:50:14;;;;;;;;;;;;;;;-144.32;100.00;68061.97;10237016;28;19967;-88
2023/10/10 18:55:15;;;;;;;;;;;;;;;-144.32;100.00;68061.97;10228871;28;19927;-85
2023/10/10 19:00:18;;;;;;;;;;;;;;;-144.32;100.00;68061.97;10200129;28;19937;-84
2023/10/10 19:05:28;;;;;;;;;;;;;;;-144.32;100.00;68061.97;10219393;28;20025;-83
2023/10/10 19:10:28;;;;;;;;;;;;;;;-144.32;100.00;68061.97;10248308;28;19926;-86
2023/10/10 19:15:29;;;;;;;;;;;;;;;-144.32;100.00;68061.97;10307269;28;19979;-85
2023/10/10 19:20:36;;;;;;;;;;;;;;;-144.32;100.00;68061.97;10246337;28;19930;-83
2023/10/10 19:25:45;;;;;;;;;;;;;;;-144.32;100.00;68061.97;10221533;28;20211;-87
2023/10/10 19:30:50;;;;;;;;;;;;;;;-144.32;100.00;68061.97;10260433;28;20673;-83
2023/10/10 19:36:16;;;;;;;;;;;;;;;-144.32;100.00;68061.97;10357412;23;20073;-88
2023/10/10 19:41:20;;;;;;;;;;;;;;;-144.32;100.00;68061.97;10326896;28;19938;-83
2023/10/10 19:46:28;;;;;;;;;;;;;;;-144.32;100.00;68061.97;10286058;28;20045;-84
2023/10/10 19:51:31;;;;;;;;;;;;;;;-144.32;100.00;68061.97;10298622;28;19936;-84
2023/10/10 19:56:31;;;;;;;;;;;;;;;-144.32;100.00;68061.97;10336789;28;19958;-84
2023/10/10 20:01:56;;;;;;;;;;;;;;;-144.32;100.00;68061.97;10291431;28;19978;-82
2023/10/10 20:06:58;;;;;;;;;;;;;;;-144.32;100.00;68061.97;10285463;28;20078;-81
2023/10/10 20:11:59;;;;;;;;;;;;;;;-144.32;100.00;68061.97;10309215;28;19936;-85
2023/10/10 20:17:01;;;;;;;;;;;;;;;-144.32;100.00;68061.97;10282321;28;19926;-82
2023/10/10 20:22:02;;;;;;;;;;;;;;;-144.32;100.00;68061.97;10291374;28;19922;-81
2023/10/10 20:27:05;;;;;;;;;;;;;;;-144.32;100.00;68061.97;10310490;28;20001;-82
2023/10/10 20:32:06;;;;;;;;;;;;;;;-144.32;100.00;68061.97;10297803;28;19926;-82
2023/10/10 20:37:09;;;;;;;;;;;;;;;-144.32;100.00;68061.97;10294456;28;20354;-80
2023/10/10 20:42:12;;;;;;;;;;;;;;;-144.32;100.00;68061.97;10287582;28;20298;-88
2023/10/10 20:47:46;;;;;;;;;;;;;;;-144.32;100.00;68061.97;10288532;28;19930;-84
2023/10/10 20:52:48;;;;;;;;;;;;;;;-144.32;100.00;68061.97;10286607;28;19926;-87
2023/10/10 20:57:52;;;;;;;;;;;;;;;-144.32;100.00;68061.97;10299421;28;19926;-86
2023/10/10 21:02:54;;;;;;;;;;;;;;;-144.32;100.00;68061.97;10332519;28;19926;-88
2023/10/10 21:08:20;;;;;;;;;;;;;;;-144.32;100.00;68061.97;10343479;28;19910;-86
2023/10/10 21:13:29;;;;;;;;;;;;;;;-144.32;100.00;68061.97;10317736;28;19933;-86
2023/10/10 21:18:34;;;;;;;;;;;;;;;-144.32;100.00;68061.97;10285675;28;19930;-84
2023/10/10 21:23:35;;;;;;;;;;;;;;;-144.32;100.00;68061.97;10290196;28;19933;-84
2023/10/10 21:28:46;;;;;;;;;;;;;;;-144.32;100.00;68061.97;10289816;28;19926;-83
2023/10/10 21:33:47;;;;;;;;;;;;;;;-144.32;100.00;68061.97;10279016;28;19929;-86
2023/10/10 21:38:48;;;;;;;;;;;;;;;-144.32;100.00;68061.97;10270777;28;19938;-84
2023/10/10 21:43:50;;;;;;;;;;;;;;;-144.32;100.00;68061.97;10255139;28;19932;-85
2023/10/10 21:48:53;;;;;;;;;;;;;;;-144.32;100.00;68061.97;10250113;28;19929;-87
2023/10/10 21:53:56;;;;;;;;;;;;;;;-144.32;100.00;68061.97;10270922;28;19926;-85
2023/10/10 21:58:58;;;;;;;;;;;;;;;-144.32;100.00;68061.97;10256170;28;20016;-84
2023/10/10 22:04:04;;;;;;;;;;;;;;;-144.32;100.00;68061.97;10266009;28;19925;-83
2023/10/10 22:09:06;;;;;;;;;;;;;;;-144.32;100.00;68061.97;10269932;28;20041;-84
2023/10/10 22:14:10;;;;;;;;;;;;;;;-144.32;100.00;68061.97;10226826;28;20056;-84
2023/10/10 22:19:14;;;;;;;;;;;;;;;-144.32;100.00;68061.97;10240072;28;19981;-86
2023/10/10 22:24:15;;;;;;;;;;;;;;;-144.32;100.00;68061.97;10261381;28;20575;-86
2023/10/10 22:29:15;;;;;;;;;;;;;;;-144.32;100.00;68061.97;10238261;28;19923;-84
2023/10/10 22:34:15;;;;;;;;;;;;;;;-144.32;100.00;68061.97;10237928;28;19926;-86
2023/10/10 22:39:16;;;;;;;;;;;;;;;-144.32;100.00;68061.97;10262843;28;19954;-84
2023/10/10 22:44:16;;;;;;;;;;;;;;;-144.32;100.00;68061.97;10232497;28;19966;-83
2023/10/10 22:49:18;;;;;;;;;;;;;;;-144.32;100.00;68061.97;10289000;28;19981;-84
2023/10/10 22:54:19;;;;;;;;;;;;;;;-144.32;100.00;68061.97;10288128;28;20454;-87
2023/10/10 22:59:29;;;;;;;;;;;;;;;-144.32;100.00;68061.97;10293397;28;19965;-86
2023/10/10 23:04:45;;;;;;;;;;;;;;;-144.32;100.00;68061.97;10275202;28;19980;-85
2023/10/10 23:09:47;;;;;;;;;;;;;;;-144.32;100.00;68061.97;10243290;28;19930;-84
2023/10/10 23:14:48;;;;;;;;;;;;;;;-144.32;100.00;68061.97;10258971;28;19933;-87
2023/10/10 23:19:55;;;;;;;;;;;;;;;-144.32;100.00;68061.97;10221000;28;20017;-86
2023/10/10 23:25:27;;;;;;;;;;;;;;;-144.32;100.00;68061.97;10224694;28;19930;-84
2023/10/10 23:30:32;;;;;;;;;;;;;;;-144.32;100.00;68061.97;10224390;28;19945;-84
2023/10/10 23:40:40;;;;;;;;;;;;;;;-144.32;100.00;68061.97;10277528;28;20044;-85
2023/10/10 23:45:58;;;;;;;;;;;;;;;-144.32;100.00;68061.97;10212858;28;19924;-85
2023/10/10 23:56:46;;;;;;;;;;;;;;;-144.32;100.00;68061.97;10227656;28;19926;-83
